• Join FlightAware (Why Join?)
  • Login
  • US Flag 
08:54PM EDT


 

Airport Tracker/Info


-or-


 

Live Flight TrackerFlight Track Log ✈ SWA508 ✈ 01-May-2013 ✈ KMCO - KPIT

Flight Track Log - Related Links

Times and Time Zones

All times are in EDT time to prevent confusion due to time zone crossing. See the SWA508 flight status page for this flight to view local times or setup timezone preferences in your user account.

Time Position Orientation Groundspeed Altitude Reporting Facility
EDT Latitude Longitude Course Direction KTS MPH feet Rate Location/Type
08:12AM 28.4333 -81.3000 41° Northeast 166 191 800  Level Orlando TRACON
08:13AM 28.4667 -81.2667 41° Northeast 201 231 3,100 2,400 Climbing Orlando TRACON
08:14AM 28.5333 -81.2333 24° Northeast 278 320 5,500 2,280 Climbing Orlando TRACON
08:15AM 28.6167 -81.2167 10° North 294 338 8,000 11,280 Climbing Orlando TRACON
08:17AM 28.7672 -81.2275 356° North 293 337 41,000 1,800 Climbing Jacksonville Center
08:18AM 28.8550 -81.2403 353° North 300 345 13,500 -11,940 Descending Jacksonville Center
08:19AM 28.9533 -81.2553 352° North 327 376 17,200 3,540 Climbing Jacksonville Center
08:20AM 29.0600 -81.2653 355° North 359 413 20,600 1,860 Climbing Jacksonville Center
08:21AM 29.1664 -81.2731 356° North 375 432 21,000 1,260 Climbing Jacksonville Center
08:22AM 29.2794 -81.2808 357° North 385 443 23,200 2,460 Climbing Jacksonville Center
08:23AM 29.3922 -81.2886 357° North 396 456 26,000 2,520 Climbing Jacksonville Center
08:24AM 29.5217 -81.3031 354° North 409 471 28,300 2,220 Climbing Jacksonville Center
08:25AM 29.6472 -81.3131 356° North 430 495 30,500 2,220 Climbing Jacksonville Center
08:26AM 29.7725 -81.3206 357° North 448 516 32,800 2,400 Climbing Jacksonville Center
08:27AM 29.8978 -81.3306 356° North 448 516 35,400 2,220 Climbing Jacksonville Center
08:28AM 30.0233 -81.3406 356° North 448 516 37,300 1,620 Climbing Jacksonville Center
08:29AM 30.1467 -81.3506 356° North 448 516 38,700 1,440 Climbing Jacksonville Center
08:30AM 30.2697 -81.3581 357° North 443 510 40,200 1,140 Climbing Jacksonville Center
08:31AM 30.3931 -81.3658 357° North 443 510 41,000 360 Climbing Jacksonville Center
08:32AM 30.5017 -81.3761 355° North 438 504 41,000  Level Jacksonville Center
08:33AM 30.6208 -81.3767 360° North 438 504 41,000  Level Jacksonville Center
08:34AM 30.7397 -81.3650 North 432 497 41,000  Level Jacksonville Center
08:35AM 30.8606 -81.3558 North 432 497 41,000  Level Jacksonville Center
08:36AM 30.9817 -81.3442 North 432 497 41,000  Level Jacksonville Center
08:37AM 31.1006 -81.3325 North 427 491 41,000  Level Jacksonville Center
08:38AM 31.2194 -81.3208 North 427 491 41,000  Level Jacksonville Center
08:39AM 31.3486 -81.3064 North 421 484 41,000  Level Jacksonville Center
08:40AM 31.4694 -81.2947 North 426 490 41,000  Level Jacksonville Center
08:41AM 31.5758 -81.2856 North 426 490 41,000  Level Jacksonville Center
08:42AM 31.7094 -81.2733 North 426 490 41,000  Level Jacksonville Center
08:43AM 31.8261 -81.2592 North 425 489 41,000  Level Jacksonville Center
08:44AM 31.9450 -81.2472 North 425 489 41,000 -1,020 Level Jacksonville Center
08:45AM 32.0639 -81.2353 North 425 489 39,000 -1,020 Descending Jacksonville Center
08:46AM 32.1847 -81.2258 North 425 489 39,000  Level Jacksonville Center
08:47AM 32.3036 -81.2139 North 425 489 39,000  Level Jacksonville Center
08:48AM 32.4183 -81.2067 North 433 498 39,000  Level Jacksonville Center
08:49AM 32.5497 -81.1919 North 433 498 39,000  Level Jacksonville Center
08:50AM 32.6686 -81.1800 North 433 498 39,000  Level Jacksonville Center
08:51AM 32.7894 -81.1678 North 433 498 39,000  Level Jacksonville Center
08:52AM 32.9103 -81.1556 North 433 498 39,000  Level Jacksonville Center
08:53AM 33.0333 -81.1433 North 433 498 39,000  Level Jacksonville Center
08:54AM 33.1564 -81.1308 North 438 504 39,000  Level Jacksonville Center
08:55AM 33.2750 -81.1186 North 438 504 39,000  Level Jacksonville Center
08:56AM 33.3958 -81.1064 North 438 504 39,000  Level Jacksonville Center
08:57AM 33.5169 -81.0939 North 438 504 39,000  Level Jacksonville Center
08:58AM 33.6356 -81.0839 North 438 504 39,000  Level Jacksonville Center
08:59AM 33.7586 -81.0664 North 438 504 39,000  Level Jacksonville Center
09:00AM 33.8753 -81.0539 North 438 504 39,000  Level Jacksonville Center
09:01AM 33.9939 -81.0414 North 433 498 39,000  Level Jacksonville Center
09:02AM 34.1169 -81.0314 North 428 493 39,000  Level Jacksonville Center
09:04AM 34.3956 -81.0053 North 421 484 39,000  Level Atlanta Center
09:05AM 34.5097 -80.9911 North 421 484 39,000  Level Atlanta Center
09:06AM 34.6181 -80.9772 North 415 478 39,000  Level Atlanta Center
09:07AM 34.7389 -80.9703 North 415 478 39,000  Level Atlanta Center
09:08AM 34.8492 -80.9586 North 409 471 39,000  Level Atlanta Center
09:09AM 34.9636 -80.9417 North 404 465 39,000  Level Atlanta Center
09:10AM 35.0800 -80.9297 North 410 472 39,000  Level Atlanta Center
09:11AM 35.1778 -80.9133 North 410 472 39,000  Level Atlanta Center
09:12AM 35.2922 -80.9039 North 405 466 39,000  Level Atlanta Center
09:13AM 35.4089 -80.8917 North 410 472 39,000  Level Atlanta Center
09:14AM 35.5378 -80.8767 North 410 472 39,000  Level Atlanta Center
09:15AM 35.6542 -80.8644 North 410 472 39,000  Level Atlanta Center
09:16AM 35.7625 -80.8603 North 417 480 39,000  Level Atlanta Center
09:17AM 35.8750 -80.8456 North 422 486 39,000  Level Atlanta Center
09:18AM 36.0036 -80.8278 North 422 486 39,000  Level Atlanta Center
09:19AM 36.1097 -80.8158 North 422 486 39,000  Level Atlanta Center
09:20AM 36.2242 -80.8061 North 422 486 39,000  Level Atlanta Center
09:21AM 36.3408 -80.7936 North 422 486 39,000  Level Atlanta Center
09:22AM 36.4592 -80.7811 North 422 486 39,000  Level Atlanta Center
09:24AM 36.6639 -80.7631 North 421 484 39,000 -60 Level Washington Center
09:25AM 36.7939 -80.7483 North 427 491 38,900 -600 Descending Washington Center
09:26AM 36.9133 -80.7356 North 427 491 37,900 -1,740 Descending Washington Center
09:27AM 37.0308 -80.7225 North 427 491 35,500 -1,440 Descending Washington Center
09:28AM 37.1467 -80.6964 10° North 427 491 35,000 -300 Descending Washington Center
09:29AM 37.2503 -80.6642 14° North 427 491 35,000  Level Washington Center
09:30AM 37.3647 -80.6247 15° North 421 484 35,000  Level Washington Center
09:31AM 37.4786 -80.5906 13° North 421 484 35,000 -1,500 Level Washington Center
09:32AM 37.5972 -80.5511 15° North 410 472 32,000 -2,940 Descending Washington Center
09:33AM 37.7178 -80.5117 15° North 424 488 29,100 -1,560 Descending Washington Center
09:34AM 37.8447 -80.4700 15° North 429 494 29,000 -60 Descending Washington Center
09:35AM 37.9589 -80.4300 15° North 429 494 29,000  Level Washington Center
09:36AM 38.0750 -80.3928 14° North 424 488 29,000 -660 Level Washington Center
09:37AM 38.1894 -80.3525 15° North 424 488 27,700 -1,860 Descending Washington Center
09:38AM 38.2972 -80.3169 15° North 413 475 25,300 -1,920 Descending Washington Center
09:39AM 38.3944 -80.2836 15° North 403 464 24,000 -720 Descending Washington Center
09:40AM 38.4958 -80.2500 15° North 390 449 24,000  Level Washington Center
09:41AM 38.5994 -80.2142 15° North 385 443 24,000 -480 Level Washington Center
09:42AM 38.7008 -80.1781 16° North 385 443 23,100 -1,080 Descending Washington Center
09:43AM 38.8128 -80.1422 14° North 385 443 21,900 -780 Descending Washington Center
09:45AM 38.9861 -80.0517 22° Northeast 394 453 21,000 -360 Descending Cleveland Center
09:46AM 39.0775 -79.9894 28° Northeast 378 435 21,000  Level Cleveland Center
09:47AM 39.1733 -79.9350 24° Northeast 371 427 21,000  Level Cleveland Center
09:48AM 39.2731 -79.9181 North 360 414 21,000  Level Cleveland Center
09:49AM 39.3731 -79.8983 North 360 414 21,000  Level Cleveland Center
09:50AM 39.4792 -79.8758 North 366 421 21,000  Level Cleveland Center
09:51AM 39.5833 -79.8531 10° North 372 428 21,000  Level Cleveland Center
09:52AM 39.6894 -79.8278 10° North 377 434 21,000 -480 Level Cleveland Center
09:53AM 39.7914 -79.8050 10° North 377 434 20,100 -1,500 Descending Cleveland Center
09:54AM 39.8933 -79.7822 10° North 377 434 18,100 -2,400 Descending Cleveland Center
09:55AM 39.9914 -79.7619 North 365 420 15,400 -2,700 Descending Cleveland Center
09:56AM 40.0767 -79.7419 10° North 355 409 12,700 -2,520 Descending Cleveland Center
09:57AM 40.1664 -79.7489 357° North 324 373 10,400 -1,500 Descending Cleveland Center
09:58AM 40.2231 -79.8381 310° West 292 336 9,800 -1,080 Descending Cleveland Center
09:59AM 40.2717 -79.9244 306° West 287 330 8,300 -1,500 Descending Cleveland Center
10:00AM 40.3200 -80.0058 308° West 287 330 6,800 -1,140 Descending Cleveland Center
10:01AM 40.3664 -80.0872 307° West 287 330 6,100 -360 Descending Cleveland Center
10:02AM 40.4042 -80.1742 300° West 282 325 6,100 -180 Level Cleveland Center
10:03AM 40.4025 -80.2722 269° West 252 290 5,800 -600 Descending Cleveland Center
10:04AM 40.4025 -80.3542 270° West 245 282 5,000 -840 Descending Cleveland Center
10:06AM 40.4915 -80.2329 46° Northeast  Level Estimated
10:13AM 40.4915 -80.2329 339° North  Level Estimated
10:14AM 40.4915 -80.2329 339° North  Level Estimated